sensor_id;sensor_type;location;lat;lon;timestamp;pressure;altitude;pressure_sealevel;temperature;humidity
7834;BME280;3962;42.696;23.354;2023-04-21T00:00:17;94791.13;;;10.03;83.24
7834;BME280;3962;42.696;23.354;2023-04-21T00:02:43;94782.91;;;9.96;84.16
7834;BME280;3962;42.696;23.354;2023-04-21T00:05:11;94781.34;;;9.86;84.33
7834;BME280;3962;42.696;23.354;2023-04-21T00:07:38;94765.47;;;9.76;85.03
7834;BME280;3962;42.696;23.354;2023-04-21T00:10:06;94770.97;;;9.57;85.43
7834;BME280;3962;42.696;23.354;2023-04-21T00:12:35;94777.22;;;9.48;86.46
7834;BME280;3962;42.696;23.354;2023-04-21T00:15:03;94771.59;;;9.34;87.40
7834;BME280;3962;42.696;23.354;2023-04-21T00:17:30;94778.59;;;9.17;88.63
7834;BME280;3962;42.696;23.354;2023-04-21T00:19:57;94774.69;;;9.12;89.24
7834;BME280;3962;42.696;23.354;2023-04-21T00:22:24;94771.94;;;9.04;89.96
7834;BME280;3962;42.696;23.354;2023-04-21T00:24:50;94777.13;;;9.05;90.74
7834;BME280;3962;42.696;23.354;2023-04-21T00:27:17;94777.25;;;9.04;91.11
7834;BME280;3962;42.696;23.354;2023-04-21T00:29:45;94774.06;;;9.00;91.93
7834;BME280;3962;42.696;23.354;2023-04-21T00:32:12;94771.28;;;9.02;91.88
7834;BME280;3962;42.696;23.354;2023-04-21T00:34:39;94769.06;;;8.97;92.49
7834;BME280;3962;42.696;23.354;2023-04-21T00:37:06;94774.53;;;8.96;92.00
7834;BME280;3962;42.696;23.354;2023-04-21T00:39:33;94783.47;;;8.95;92.05
7834;BME280;3962;42.696;23.354;2023-04-21T00:42:00;94778.47;;;8.92;92.26
7834;BME280;3962;42.696;23.354;2023-04-21T00:44:27;94773.03;;;8.93;91.63
7834;BME280;3962;42.696;23.354;2023-04-21T00:46:55;94776.03;;;8.98;90.60
7834;BME280;3962;42.696;23.354;2023-04-21T00:49:23;94779.91;;;9.04;89.63
7834;BME280;3962;42.696;23.354;2023-04-21T00:51:51;94769.28;;;9.04;87.84
7834;BME280;3962;42.696;23.354;2023-04-21T00:54:18;94771.41;;;9.00;86.50
7834;BME280;3962;42.696;23.354;2023-04-21T00:56:45;94765.69;;;9.05;86.59
7834;BME280;3962;42.696;23.354;2023-04-21T00:59:12;94763.31;;;9.02;86.21
7834;BME280;3962;42.696;23.354;2023-04-21T01:01:39;94769.13;;;8.88;85.74
7834;BME280;3962;42.696;23.354;2023-04-21T01:04:07;94763.91;;;8.78;85.78
7834;BME280;3962;42.696;23.354;2023-04-21T01:06:34;94757.84;;;8.86;85.66
7834;BME280;3962;42.696;23.354;2023-04-21T01:09:01;94757.88;;;8.76;86.06
7834;BME280;3962;42.696;23.354;2023-04-21T01:11:29;94763.28;;;8.84;85.48
7834;BME280;3962;42.696;23.354;2023-04-21T01:13:56;94758.97;;;8.83;85.80
7834;BME280;3962;42.696;23.354;2023-04-21T01:16:23;94755.19;;;8.86;85.75
7834;BME280;3962;42.696;23.354;2023-04-21T01:18:51;94749.69;;;8.97;85.62
7834;BME280;3962;42.696;23.354;2023-04-21T01:21:20;94759.69;;;9.03;85.46
7834;BME280;3962;42.696;23.354;2023-04-21T01:23:49;94758.31;;;8.99;85.01
7834;BME280;3962;42.696;23.354;2023-04-21T01:26:17;94763.19;;;9.03;84.59
7834;BME280;3962;42.696;23.354;2023-04-21T01:28:44;94766.66;;;9.04;83.78
7834;BME280;3962;42.696;23.354;2023-04-21T01:31:12;94762.63;;;9.00;83.28
7834;BME280;3962;42.696;23.354;2023-04-21T01:33:39;94748.53;;;8.82;83.50
7834;BME280;3962;42.696;23.354;2023-04-21T01:36:06;94762.75;;;8.81;83.68
7834;BME280;3962;42.696;23.354;2023-04-21T01:38:38;94750.78;;;8.77;84.47
7834;BME280;3962;42.696;23.354;2023-04-21T01:41:07;94759.19;;;8.72;84.25
7834;BME280;3962;42.696;23.354;2023-04-21T01:43:34;94752.34;;;8.70;85.27
7834;BME280;3962;42.696;23.354;2023-04-21T01:46:01;94755.69;;;8.72;84.71
7834;BME280;3962;42.696;23.354;2023-04-21T01:48:28;94749.25;;;8.74;85.40
7834;BME280;3962;42.696;23.354;2023-04-21T01:50:55;94743.69;;;8.77;85.72
7834;BME280;3962;42.696;23.354;2023-04-21T01:53:22;94742.50;;;8.80;85.66
7834;BME280;3962;42.696;23.354;2023-04-21T01:55:49;94749.78;;;8.78;85.35
7834;BME280;3962;42.696;23.354;2023-04-21T01:58:17;94749.47;;;8.81;85.41
7834;BME280;3962;42.696;23.354;2023-04-21T02:00:44;94744.63;;;8.76;84.87
7834;BME280;3962;42.696;23.354;2023-04-21T02:03:10;94749.16;;;8.66;84.97
7834;BME280;3962;42.696;23.354;2023-04-21T02:05:37;94752.84;;;8.56;85.80
7834;BME280;3962;42.696;23.354;2023-04-21T02:08:04;94751.88;;;8.57;85.35
7834;BME280;3962;42.696;23.354;2023-04-21T02:10:31;94748.16;;;8.50;85.23
7834;BME280;3962;42.696;23.354;2023-04-21T02:12:58;94750.66;;;8.51;85.69
7834;BME280;3962;42.696;23.354;2023-04-21T02:15:26;94744.53;;;8.51;85.95
7834;BME280;3962;42.696;23.354;2023-04-21T02:17:53;94739.75;;;8.54;85.41
7834;BME280;3962;42.696;23.354;2023-04-21T02:20:20;94744.44;;;8.60;85.38
7834;BME280;3962;42.696;23.354;2023-04-21T02:22:47;94741.13;;;8.58;85.77
7834;BME280;3962;42.696;23.354;2023-04-21T02:25:14;94754.16;;;8.52;85.47
7834;BME280;3962;42.696;23.354;2023-04-21T02:27:40;94742.78;;;8.42;85.40
7834;BME280;3962;42.696;23.354;2023-04-21T02:30:08;94743.25;;;8.28;85.81
7834;BME280;3962;42.696;23.354;2023-04-21T02:32:37;94741.31;;;8.20;86.77
7834;BME280;3962;42.696;23.354;2023-04-21T02:35:04;94740.50;;;8.20;86.11
7834;BME280;3962;42.696;23.354;2023-04-21T02:37:31;94741.59;;;8.17;86.74
7834;BME280;3962;42.696;23.354;2023-04-21T02:39:58;94749.97;;;8.22;86.76
7834;BME280;3962;42.696;23.354;2023-04-21T02:42:25;94738.94;;;8.27;86.06
7834;BME280;3962;42.696;23.354;2023-04-21T02:44:52;94747.03;;;8.25;85.60
7834;BME280;3962;42.696;23.354;2023-04-21T02:47:19;94747.25;;;8.32;85.65
7834;BME280;3962;42.696;23.354;2023-04-21T02:49:47;94744.16;;;8.36;85.93
7834;BME280;3962;42.696;23.354;2023-04-21T02:52:13;94749.09;;;8.31;86.12
7834;BME280;3962;42.696;23.354;2023-04-21T02:54:40;94749.66;;;8.25;86.06
7834;BME280;3962;42.696;23.354;2023-04-21T02:57:07;94749.97;;;8.22;85.74
7834;BME280;3962;42.696;23.354;2023-04-21T02:59:34;94750.34;;;8.18;86.27
7834;BME280;3962;42.696;23.354;2023-04-21T03:02:01;94744.81;;;8.21;85.93
7834;BME280;3962;42.696;23.354;2023-04-21T03:04:28;94746.88;;;8.27;86.85
7834;BME280;3962;42.696;23.354;2023-04-21T03:06:58;94745.69;;;8.39;86.67
7834;BME280;3962;42.696;23.354;2023-04-21T03:09:25;94751.00;;;8.39;86.19
7834;BME280;3962;42.696;23.354;2023-04-21T03:11:52;94748.44;;;8.47;86.66
7834;BME280;3962;42.696;23.354;2023-04-21T03:14:19;94745.63;;;8.58;86.49
7834;BME280;3962;42.696;23.354;2023-04-21T03:16:45;94754.59;;;8.65;85.92
7834;BME280;3962;42.696;23.354;2023-04-21T03:19:13;94753.75;;;8.74;85.69
7834;BME280;3962;42.696;23.354;2023-04-21T03:21:39;94754.19;;;8.87;85.06
7834;BME280;3962;42.696;23.354;2023-04-21T03:24:08;94764.44;;;8.99;84.59
7834;BME280;3962;42.696;23.354;2023-04-21T03:26:34;94755.22;;;9.03;83.88
7834;BME280;3962;42.696;23.354;2023-04-21T03:29:01;94755.44;;;9.10;83.22
7834;BME280;3962;42.696;23.354;2023-04-21T03:31:28;94753.09;;;9.07;82.85
7834;BME280;3962;42.696;23.354;2023-04-21T03:33:55;94768.63;;;9.19;82.17
7834;BME280;3962;42.696;23.354;2023-04-21T03:36:22;94766.47;;;9.32;81.60
7834;BME280;3962;42.696;23.354;2023-04-21T03:38:48;94771.38;;;9.45;81.40
7834;BME280;3962;42.696;23.354;2023-04-21T03:41:17;94772.88;;;9.47;80.87
7834;BME280;3962;42.696;23.354;2023-04-21T03:43:43;94770.59;;;9.52;80.41
7834;BME280;3962;42.696;23.354;2023-04-21T03:46:17;94762.94;;;9.49;80.24
7834;BME280;3962;42.696;23.354;2023-04-21T03:48:44;94775.69;;;9.46;81.20
7834;BME280;3962;42.696;23.354;2023-04-21T03:51:11;94774.69;;;9.29;81.30
7834;BME280;3962;42.696;23.354;2023-04-21T03:53:38;94771.16;;;9.21;82.42
7834;BME280;3962;42.696;23.354;2023-04-21T03:56:05;94773.63;;;10.00;85.54
7834;BME280;3962;42.696;23.354;2023-04-21T03:58:34;94773.28;;;10.54;82.58
7834;BME280;3962;42.696;23.354;2023-04-21T04:01:03;94769.13;;;10.52;82.21
7834;BME280;3962;42.696;23.354;2023-04-21T04:03:30;94785.78;;;11.03;82.13
7834;BME280;3962;42.696;23.354;2023-04-21T04:05:57;94783.97;;;10.62;78.11
7834;BME280;3962;42.696;23.354;2023-04-21T04:08:24;94779.06;;;10.42;77.49
7834;BME280;3962;42.696;23.354;2023-04-21T04:10:51;94786.47;;;10.30;77.67
7834;BME280;3962;42.696;23.354;2023-04-21T04:13:18;94781.47;;;10.27;78.18
7834;BME280;3962;42.696;23.354;2023-04-21T04:15:48;94791.50;;;10.41;78.27
7834;BME280;3962;42.696;23.354;2023-04-21T04:18:15;94792.41;;;10.50;78.09
7834;BME280;3962;42.696;23.354;2023-04-21T04:20:42;94798.28;;;10.61;77.69
7834;BME280;3962;42.696;23.354;2023-04-21T04:23:09;94800.94;;;10.61;77.17
7834;BME280;3962;42.696;23.354;2023-04-21T04:25:36;94802.44;;;10.64;76.51
7834;BME280;3962;42.696;23.354;2023-04-21T04:28:03;94803.13;;;10.66;76.99
7834;BME280;3962;42.696;23.354;2023-04-21T04:30:32;94808.28;;;10.67;76.29
7834;BME280;3962;42.696;23.354;2023-04-21T04:33:01;94804.00;;;10.74;76.05
7834;BME280;3962;42.696;23.354;2023-04-21T04:35:28;94803.84;;;10.83;75.72
7834;BME280;3962;42.696;23.354;2023-04-21T04:37:55;94802.72;;;10.94;75.20
7834;BME280;3962;42.696;23.354;2023-04-21T04:40:23;94820.25;;;11.04;75.09
7834;BME280;3962;42.696;23.354;2023-04-21T04:42:51;94818.88;;;11.00;75.33
7834;BME280;3962;42.696;23.354;2023-04-21T04:45:19;94819.81;;;10.83;75.65
7834;BME280;3962;42.696;23.354;2023-04-21T04:47:48;94822.69;;;10.06;77.25
7834;BME280;3962;42.696;23.354;2023-04-21T04:50:16;94831.06;;;9.76;79.42
7834;BME280;3962;42.696;23.354;2023-04-21T04:52:44;94815.75;;;9.70;79.82
7834;BME280;3962;42.696;23.354;2023-04-21T04:55:12;94833.72;;;9.76;80.51
7834;BME280;3962;42.696;23.354;2023-04-21T04:57:39;94830.63;;;9.80;80.55
7834;BME280;3962;42.696;23.354;2023-04-21T05:00:07;94822.72;;;9.88;80.16
7834;BME280;3962;42.696;23.354;2023-04-21T05:02:36;94827.19;;;10.05;79.95
7834;BME280;3962;42.696;23.354;2023-04-21T05:05:03;94830.91;;;10.12;79.63
7834;BME280;3962;42.696;23.354;2023-04-21T05:07:32;94828.25;;;10.12;79.71
7834;BME280;3962;42.696;23.354;2023-04-21T05:09:59;94834.06;;;10.16;79.71
7834;BME280;3962;42.696;23.354;2023-04-21T05:12:26;94818.66;;;10.19;79.74
7834;BME280;3962;42.696;23.354;2023-04-21T05:14:53;94834.84;;;10.34;79.36
7834;BME280;3962;42.696;23.354;2023-04-21T05:17:20;94836.28;;;10.54;79.50
7834;BME280;3962;42.696;23.354;2023-04-21T05:19:47;94832.75;;;10.71;78.50
7834;BME280;3962;42.696;23.354;2023-04-21T05:22:14;94831.78;;;10.80;77.94
7834;BME280;3962;42.696;23.354;2023-04-21T05:24:42;94829.16;;;10.88;76.94
7834;BME280;3962;42.696;23.354;2023-04-21T05:27:09;94827.34;;;10.96;76.53
7834;BME280;3962;42.696;23.354;2023-04-21T05:29:35;94827.56;;;11.02;75.88
7834;BME280;3962;42.696;23.354;2023-04-21T05:32:02;94821.78;;;11.15;76.07
7834;BME280;3962;42.696;23.354;2023-04-21T05:34:29;94825.00;;;11.34;75.10
7834;BME280;3962;42.696;23.354;2023-04-21T05:36:56;94826.53;;;11.53;75.02
7834;BME280;3962;42.696;23.354;2023-04-21T05:39:23;94832.75;;;11.69;74.17
7834;BME280;3962;42.696;23.354;2023-04-21T05:41:51;94825.25;;;11.65;73.90
7834;BME280;3962;42.696;23.354;2023-04-21T05:44:18;94829.06;;;11.62;73.81
7834;BME280;3962;42.696;23.354;2023-04-21T05:46:45;94823.44;;;11.81;73.24
7834;BME280;3962;42.696;23.354;2023-04-21T05:49:12;94821.59;;;11.82;72.95
7834;BME280;3962;42.696;23.354;2023-04-21T05:51:39;94819.78;;;11.90;72.44
7834;BME280;3962;42.696;23.354;2023-04-21T05:54:06;94811.63;;;12.00;71.28
7834;BME280;3962;42.696;23.354;2023-04-21T05:56:32;94814.94;;;12.10;70.38
7834;BME280;3962;42.696;23.354;2023-04-21T05:59:01;94819.28;;;12.11;70.47
7834;BME280;3962;42.696;23.354;2023-04-21T06:01:28;94823.72;;;12.34;69.90
7834;BME280;3962;42.696;23.354;2023-04-21T06:03:55;94817.88;;;12.39;69.26
7834;BME280;3962;42.696;23.354;2023-04-21T06:06:22;94813.91;;;12.35;69.35
7834;BME280;3962;42.696;23.354;2023-04-21T06:08:48;94810.22;;;12.44;69.98
7834;BME280;3962;42.696;23.354;2023-04-21T06:11:15;94812.72;;;12.45;69.20
7834;BME280;3962;42.696;23.354;2023-04-21T06:13:42;94799.22;;;12.55;69.57
7834;BME280;3962;42.696;23.354;2023-04-21T06:16:10;94809.88;;;12.55;68.90
7834;BME280;3962;42.696;23.354;2023-04-21T06:18:37;94807.69;;;12.50;69.03
7834;BME280;3962;42.696;23.354;2023-04-21T06:21:04;94811.22;;;12.43;69.58
7834;BME280;3962;42.696;23.354;2023-04-21T06:23:31;94814.72;;;12.59;69.76
7834;BME280;3962;42.696;23.354;2023-04-21T06:25:58;94806.25;;;12.40;70.22
7834;BME280;3962;42.696;23.354;2023-04-21T06:28:28;94810.50;;;12.65;70.13
7834;BME280;3962;42.696;23.354;2023-04-21T06:30:55;94812.13;;;12.82;70.06
7834;BME280;3962;42.696;23.354;2023-04-21T06:33:23;94808.38;;;13.07;69.70
7834;BME280;3962;42.696;23.354;2023-04-21T06:35:51;94805.25;;;12.87;69.53
7834;BME280;3962;42.696;23.354;2023-04-21T06:38:18;94809.78;;;12.87;69.38
7834;BME280;3962;42.696;23.354;2023-04-21T06:40:45;94810.25;;;13.06;69.60
7834;BME280;3962;42.696;23.354;2023-04-21T06:43:12;94815.84;;;13.19;68.30
7834;BME280;3962;42.696;23.354;2023-04-21T06:45:39;94812.06;;;13.36;68.51
7834;BME280;3962;42.696;23.354;2023-04-21T06:48:05;94809.97;;;13.24;68.60
7834;BME280;3962;42.696;23.354;2023-04-21T06:50:34;94808.84;;;13.18;69.11
7834;BME280;3962;42.696;23.354;2023-04-21T06:53:01;94813.13;;;13.27;69.28
7834;BME280;3962;42.696;23.354;2023-04-21T06:55:27;94804.16;;;13.20;69.43
7834;BME280;3962;42.696;23.354;2023-04-21T06:57:54;94800.41;;;13.29;69.65
7834;BME280;3962;42.696;23.354;2023-04-21T07:00:21;94796.03;;;13.36;68.98
7834;BME280;3962;42.696;23.354;2023-04-21T07:02:48;94802.44;;;13.58;68.09
7834;BME280;3962;42.696;23.354;2023-04-21T07:05:15;94797.34;;;13.71;68.28
7834;BME280;3962;42.696;23.354;2023-04-21T07:07:43;94801.84;;;14.38;66.00
7834;BME280;3962;42.696;23.354;2023-04-21T07:10:10;94795.25;;;15.35;63.50
7834;BME280;3962;42.696;23.354;2023-04-21T07:12:36;94795.34;;;15.83;60.42
7834;BME280;3962;42.696;23.354;2023-04-21T07:15:04;94803.34;;;16.19;60.91
7834;BME280;3962;42.696;23.354;2023-04-21T07:17:31;94801.44;;;16.82;58.78
7834;BME280;3962;42.696;23.354;2023-04-21T07:19:58;94802.63;;;17.41;56.73
7834;BME280;3962;42.696;23.354;2023-04-21T07:22:25;94811.69;;;17.00;56.02
7834;BME280;3962;42.696;23.354;2023-04-21T07:24:53;94801.50;;;17.29;55.76
7834;BME280;3962;42.696;23.354;2023-04-21T07:27:20;94795.63;;;16.51;57.00
7834;BME280;3962;42.696;23.354;2023-04-21T07:29:47;94797.63;;;16.01;59.11
7834;BME280;3962;42.696;23.354;2023-04-21T07:32:14;94793.06;;;15.80;59.21
7834;BME280;3962;42.696;23.354;2023-04-21T07:34:41;94788.84;;;15.07;61.56
7834;BME280;3962;42.696;23.354;2023-04-21T07:37:10;94797.41;;;15.46;61.54
7834;BME280;3962;42.696;23.354;2023-04-21T07:39:37;94798.44;;;16.22;59.03
7834;BME280;3962;42.696;23.354;2023-04-21T07:42:05;94800.56;;;17.43;56.73
7834;BME280;3962;42.696;23.354;2023-04-21T07:44:32;94804.59;;;17.73;55.37
7834;BME280;3962;42.696;23.354;2023-04-21T07:46:59;94802.38;;;17.90;54.13
7834;BME280;3962;42.696;23.354;2023-04-21T07:49:26;94797.78;;;18.57;52.82
7834;BME280;3962;42.696;23.354;2023-04-21T07:51:53;94807.28;;;18.46;52.16
7834;BME280;3962;42.696;23.354;2023-04-21T07:54:20;94806.47;;;18.39;51.68
7834;BME280;3962;42.696;23.354;2023-04-21T07:56:47;94808.09;;;18.47;50.94
7834;BME280;3962;42.696;23.354;2023-04-21T07:59:15;94797.72;;;19.08;50.83
7834;BME280;3962;42.696;23.354;2023-04-21T08:01:42;94802.66;;;18.14;52.48
7834;BME280;3962;42.696;23.354;2023-04-21T08:04:08;94801.16;;;17.05;54.94
7834;BME280;3962;42.696;23.354;2023-04-21T08:06:35;94796.69;;;16.36;56.21
7834;BME280;3962;42.696;23.354;2023-04-21T08:09:02;94799.78;;;16.81;55.83
7834;BME280;3962;42.696;23.354;2023-04-21T08:11:30;94788.25;;;17.68;54.19
7834;BME280;3962;42.696;23.354;2023-04-21T08:13:57;94798.13;;;18.99;52.03
7834;BME280;3962;42.696;23.354;2023-04-21T08:16:25;94800.94;;;19.49;49.97
7834;BME280;3962;42.696;23.354;2023-04-21T08:18:52;94789.25;;;18.79;50.48
7834;BME280;3962;42.696;23.354;2023-04-21T08:21:19;94796.00;;;19.33;50.29
7834;BME280;3962;42.696;23.354;2023-04-21T08:23:45;94800.66;;;19.70;49.01
7834;BME280;3962;42.696;23.354;2023-04-21T08:26:12;94795.75;;;19.98;48.48
7834;BME280;3962;42.696;23.354;2023-04-21T08:28:39;94804.56;;;19.24;48.88
7834;BME280;3962;42.696;23.354;2023-04-21T08:31:06;94797.44;;;19.42;49.80
7834;BME280;3962;42.696;23.354;2023-04-21T08:33:34;94779.25;;;19.05;48.76
7834;BME280;3962;42.696;23.354;2023-04-21T08:36:01;94789.88;;;19.70;48.66
7834;BME280;3962;42.696;23.354;2023-04-21T08:38:28;94797.03;;;19.89;48.46
7834;BME280;3962;42.696;23.354;2023-04-21T08:40:58;94790.75;;;19.58;48.28
7834;BME280;3962;42.696;23.354;2023-04-21T08:43:25;94786.06;;;19.84;48.49
7834;BME280;3962;42.696;23.354;2023-04-21T08:45:52;94774.78;;;19.94;47.56
7834;BME280;3962;42.696;23.354;2023-04-21T08:48:20;94786.06;;;19.84;47.59
7834;BME280;3962;42.696;23.354;2023-04-21T08:50:50;94783.81;;;19.75;47.71
7834;BME280;3962;42.696;23.354;2023-04-21T08:53:18;94785.66;;;19.17;49.55
7834;BME280;3962;42.696;23.354;2023-04-21T08:55:50;94777.53;;;19.43;48.24
7834;BME280;3962;42.696;23.354;2023-04-21T08:58:17;94778.34;;;19.44;48.94
7834;BME280;3962;42.696;23.354;2023-04-21T09:00:44;94765.97;;;19.17;48.58
7834;BME280;3962;42.696;23.354;2023-04-21T09:03:11;94773.06;;;19.62;48.10
7834;BME280;3962;42.696;23.354;2023-04-21T09:05:38;94764.84;;;19.44;47.01
7834;BME280;3962;42.696;23.354;2023-04-21T09:08:10;94771.06;;;19.88;47.06
7834;BME280;3962;42.696;23.354;2023-04-21T09:10:43;94764.56;;;18.88;48.04
7834;BME280;3962;42.696;23.354;2023-04-21T09:13:12;94756.03;;;18.98;48.40
7834;BME280;3962;42.696;23.354;2023-04-21T09:15:39;94761.28;;;18.54;49.18
7834;BME280;3962;42.696;23.354;2023-04-21T09:18:10;94759.34;;;17.96;51.16
7834;BME280;3962;42.696;23.354;2023-04-21T09:20:37;94762.56;;;17.59;50.64
7834;BME280;3962;42.696;23.354;2023-04-21T09:23:04;94760.25;;;17.50;52.32
7834;BME280;3962;42.696;23.354;2023-04-21T09:25:33;94753.16;;;17.42;52.14
7834;BME280;3962;42.696;23.354;2023-04-21T09:28:00;94752.31;;;17.35;51.59
7834;BME280;3962;42.696;23.354;2023-04-21T09:30:27;94755.06;;;17.48;51.86
7834;BME280;3962;42.696;23.354;2023-04-21T09:32:55;94752.41;;;17.14;50.32
7834;BME280;3962;42.696;23.354;2023-04-21T09:35:26;94760.44;;;17.42;49.74
7834;BME280;3962;42.696;23.354;2023-04-21T09:37:53;94745.22;;;17.75;49.71
7834;BME280;3962;42.696;23.354;2023-04-21T09:40:20;94734.28;;;18.02;48.72
7834;BME280;3962;42.696;23.354;2023-04-21T09:42:48;94740.13;;;18.77;47.31
7834;BME280;3962;42.696;23.354;2023-04-21T09:45:16;94735.59;;;18.52;47.18
7834;BME280;3962;42.696;23.354;2023-04-21T09:47:48;94731.19;;;17.99;48.31
7834;BME280;3962;42.696;23.354;2023-04-21T09:50:16;94731.84;;;18.40;48.80
7834;BME280;3962;42.696;23.354;2023-04-21T09:52:48;94723.53;;;18.67;47.90
7834;BME280;3962;42.696;23.354;2023-04-21T09:55:18;94729.78;;;18.35;48.11
7834;BME280;3962;42.696;23.354;2023-04-21T09:57:47;94724.38;;;18.22;49.52
7834;BME280;3962;42.696;23.354;2023-04-21T10:00:17;94726.59;;;17.93;50.21
7834;BME280;3962;42.696;23.354;2023-04-21T10:02:46;94730.72;;;17.76;50.90
7834;BME280;3962;42.696;23.354;2023-04-21T10:05:13;94716.25;;;17.83;49.92
7834;BME280;3962;42.696;23.354;2023-04-21T10:07:40;94717.03;;;17.64;49.25
7834;BME280;3962;42.696;23.354;2023-04-21T10:10:12;94727.34;;;17.48;48.54
7834;BME280;3962;42.696;23.354;2023-04-21T10:12:43;94730.66;;;17.50;50.00
7834;BME280;3962;42.696;23.354;2023-04-21T10:15:30;94728.59;;;17.45;50.83
7834;BME280;3962;42.696;23.354;2023-04-21T10:18:11;94723.91;;;17.26;51.84
7834;BME280;3962;42.696;23.354;2023-04-21T10:20:52;94730.81;;;16.95;52.80
7834;BME280;3962;42.696;23.354;2023-04-21T10:23:29;94726.75;;;17.65;51.03
7834;BME280;3962;42.696;23.354;2023-04-21T10:26:01;94726.03;;;18.36;50.34
7834;BME280;3962;42.696;23.354;2023-04-21T10:28:47;94718.38;;;18.53;48.95
7834;BME280;3962;42.696;23.354;2023-04-21T10:31:28;94720.41;;;18.25;49.30
7834;BME280;3962;42.696;23.354;2023-04-21T10:34:15;94717.06;;;18.87;49.05
7834;BME280;3962;42.696;23.354;2023-04-21T10:37:07;94718.06;;;19.06;48.76
7834;BME280;3962;42.696;23.354;2023-04-21T10:39:35;94719.66;;;19.26;48.71
7834;BME280;3962;42.696;23.354;2023-04-21T10:42:26;94717.09;;;18.75;47.71
7834;BME280;3962;42.696;23.354;2023-04-21T10:45:00;94711.91;;;18.21;49.44
7834;BME280;3962;42.696;23.354;2023-04-21T10:47:35;94716.94;;;18.18;49.22
7834;BME280;3962;42.696;23.354;2023-04-21T10:52:55;94717.13;;;18.55;47.91
7834;BME280;3962;42.696;23.354;2023-04-21T10:55:28;94711.66;;;18.87;46.69
7834;BME280;3962;42.696;23.354;2023-04-21T10:57:55;94709.13;;;19.12;45.54
7834;BME280;3962;42.696;23.354;2023-04-21T11:00:24;94704.16;;;19.66;44.48
7834;BME280;3962;42.696;23.354;2023-04-21T11:03:01;94712.34;;;19.84;44.96
7834;BME280;3962;42.696;23.354;2023-04-21T11:05:33;94711.50;;;19.52;42.71
7834;BME280;3962;42.696;23.354;2023-04-21T11:08:07;94706.22;;;19.20;43.95
7834;BME280;3962;42.696;23.354;2023-04-21T11:10:48;94719.47;;;19.15;47.35
7834;BME280;3962;42.696;23.354;2023-04-21T11:13:16;94706.56;;;18.67;48.20
7834;BME280;3962;42.696;23.354;2023-04-21T11:15:58;94710.75;;;18.30;50.53
7834;BME280;3962;42.696;23.354;2023-04-21T11:18:41;94708.44;;;18.53;51.09
7834;BME280;3962;42.696;23.354;2023-04-21T11:21:09;94710.25;;;18.85;50.32
7834;BME280;3962;42.696;23.354;2023-04-21T11:23:51;94708.03;;;18.37;51.31
7834;BME280;3962;42.696;23.354;2023-04-21T11:26:28;94699.72;;;18.12;50.25
7834;BME280;3962;42.696;23.354;2023-04-21T11:28:59;94699.94;;;18.43;49.38
7834;BME280;3962;42.696;23.354;2023-04-21T11:31:27;94698.47;;;18.67;48.92
7834;BME280;3962;42.696;23.354;2023-04-21T11:33:55;94705.75;;;18.53;49.63
7834;BME280;3962;42.696;23.354;2023-04-21T11:36:24;94713.84;;;18.34;50.73
7834;BME280;3962;42.696;23.354;2023-04-21T11:38:52;94718.56;;;18.06;52.13
7834;BME280;3962;42.696;23.354;2023-04-21T11:41:23;94718.38;;;18.40;51.93
7834;BME280;3962;42.696;23.354;2023-04-21T11:43:50;94716.28;;;18.74;51.36
7834;BME280;3962;42.696;23.354;2023-04-21T11:46:22;94707.38;;;18.74;50.07
7834;BME280;3962;42.696;23.354;2023-04-21T11:49:01;94710.50;;;18.45;50.27
7834;BME280;3962;42.696;23.354;2023-04-21T11:51:33;94704.06;;;18.00;48.32
7834;BME280;3962;42.696;23.354;2023-04-21T11:54:00;94706.16;;;18.57;47.97
7834;BME280;3962;42.696;23.354;2023-04-21T11:56:27;94708.19;;;18.74;46.41
7834;BME280;3962;42.696;23.354;2023-04-21T11:58:54;94701.38;;;19.35;45.37
7834;BME280;3962;42.696;23.354;2023-04-21T12:01:21;94704.13;;;19.28;44.55
7834;BME280;3962;42.696;23.354;2023-04-21T12:03:52;94699.34;;;19.17;44.93
7834;BME280;3962;42.696;23.354;2023-04-21T12:06:22;94702.88;;;19.18;44.26
7834;BME280;3962;42.696;23.354;2023-04-21T12:08:54;94698.53;;;19.67;43.54
7834;BME280;3962;42.696;23.354;2023-04-21T12:11:22;94711.50;;;19.52;43.55
7834;BME280;3962;42.696;23.354;2023-04-21T12:13:49;94709.63;;;18.89;44.95
7834;BME280;3962;42.696;23.354;2023-04-21T12:16:16;94712.91;;;19.04;45.57
7834;BME280;3962;42.696;23.354;2023-04-21T12:18:43;94717.13;;;18.42;45.96
7834;BME280;3962;42.696;23.354;2023-04-21T12:21:13;94715.44;;;18.02;45.62
7834;BME280;3962;42.696;23.354;2023-04-21T12:23:42;94715.88;;;17.99;46.71
7834;BME280;3962;42.696;23.354;2023-04-21T12:26:10;94719.81;;;18.10;47.26
7834;BME280;3962;42.696;23.354;2023-04-21T12:28:37;94715.88;;;18.25;47.26
7834;BME280;3962;42.696;23.354;2023-04-21T12:31:05;94709.50;;;18.39;46.59
7834;BME280;3962;42.696;23.354;2023-04-21T12:33:32;94711.09;;;18.01;46.81
7834;BME280;3962;42.696;23.354;2023-04-21T12:35:59;94705.94;;;18.06;46.77
7834;BME280;3962;42.696;23.354;2023-04-21T12:38:26;94715.44;;;18.02;46.78
7834;BME280;3962;42.696;23.354;2023-04-21T12:40:54;94716.47;;;17.82;46.96
7834;BME280;3962;42.696;23.354;2023-04-21T12:43:21;94708.59;;;18.00;47.44
7834;BME280;3962;42.696;23.354;2023-04-21T12:45:48;94708.66;;;18.32;46.47
7834;BME280;3962;42.696;23.354;2023-04-21T12:48:17;94698.47;;;18.54;46.84
7834;BME280;3962;42.696;23.354;2023-04-21T12:50:44;94702.38;;;18.71;46.40
7834;BME280;3962;42.696;23.354;2023-04-21T12:53:12;94693.69;;;18.69;46.99
7834;BME280;3962;42.696;23.354;2023-04-21T12:55:39;94699.72;;;18.58;47.68
7834;BME280;3962;42.696;23.354;2023-04-21T12:58:08;94705.97;;;18.45;45.84
7834;BME280;3962;42.696;23.354;2023-04-21T13:00:37;94703.00;;;17.75;46.81
7834;BME280;3962;42.696;23.354;2023-04-21T13:03:04;94704.38;;;17.45;48.38
7834;BME280;3962;42.696;23.354;2023-04-21T13:05:31;94694.72;;;17.70;48.30
7834;BME280;3962;42.696;23.354;2023-04-21T13:07:58;94698.88;;;17.99;48.19
7834;BME280;3962;42.696;23.354;2023-04-21T13:10:25;94697.84;;;18.00;47.35
7834;BME280;3962;42.696;23.354;2023-04-21T13:12:52;94695.19;;;18.26;45.95
7834;BME280;3962;42.696;23.354;2023-04-21T13:15:20;94691.84;;;18.11;46.00
7834;BME280;3962;42.696;23.354;2023-04-21T13:17:47;94691.44;;;18.14;46.51
7834;BME280;3962;42.696;23.354;2023-04-21T13:20:14;94686.25;;;18.12;46.87
7834;BME280;3962;42.696;23.354;2023-04-21T13:22:43;94693.72;;;18.04;47.06